sensor_id;sensor_type;location;lat;lon;timestamp;P1;durP1;ratioP1;P2;durP2;ratioP2
44110;SDS011;29774;52.664;5.074;2022-08-18T00:02:17;3.97;;;2.10;;
44110;SDS011;29774;52.664;5.074;2022-08-18T00:04:50;2.30;;;1.80;;
44110;SDS011;29774;52.664;5.074;2022-08-18T00:07:17;1.92;;;1.73;;
44110;SDS011;29774;52.664;5.074;2022-08-18T00:09:48;1.70;;;1.52;;
44110;SDS011;29774;52.664;5.074;2022-08-18T00:12:16;1.60;;;1.48;;
44110;SDS011;29774;52.664;5.074;2022-08-18T00:14:49;2.70;;;1.80;;
44110;SDS011;29774;52.664;5.074;2022-08-18T00:17:16;2.17;;;1.80;;
44110;SDS011;29774;52.664;5.074;2022-08-18T00:19:43;3.15;;;1.80;;
44110;SDS011;29774;52.664;5.074;2022-08-18T00:22:09;3.25;;;1.80;;
44110;SDS011;29774;52.664;5.074;2022-08-18T00:24:38;3.72;;;1.90;;
44110;SDS011;29774;52.664;5.074;2022-08-18T00:27:04;3.13;;;1.77;;
44110;SDS011;29774;52.664;5.074;2022-08-18T00:29:30;3.63;;;2.35;;
44110;SDS011;29774;52.664;5.074;2022-08-18T00:31:56;3.13;;;2.28;;
44110;SDS011;29774;52.664;5.074;2022-08-18T00:34:22;2.67;;;1.70;;
44110;SDS011;29774;52.664;5.074;2022-08-18T00:36:47;2.47;;;2.20;;
44110;SDS011;29774;52.664;5.074;2022-08-18T00:39:14;2.45;;;1.80;;
44110;SDS011;29774;52.664;5.074;2022-08-18T00:41:40;3.05;;;2.30;;
44110;SDS011;29774;52.664;5.074;2022-08-18T00:44:06;2.88;;;2.35;;
44110;SDS011;29774;52.664;5.074;2022-08-18T00:46:34;2.38;;;2.05;;
44110;SDS011;29774;52.664;5.074;2022-08-18T00:49:02;1.83;;;1.63;;
44110;SDS011;29774;52.664;5.074;2022-08-18T00:51:32;2.08;;;1.98;;
44110;SDS011;29774;52.664;5.074;2022-08-18T00:54:05;2.22;;;1.80;;
44110;SDS011;29774;52.664;5.074;2022-08-18T00:56:46;2.10;;;1.90;;
44110;SDS011;29774;52.664;5.074;2022-08-18T01:02:02;2.42;;;1.90;;
44110;SDS011;29774;52.664;5.074;2022-08-18T01:04:36;2.60;;;2.20;;
44110;SDS011;29774;52.664;5.074;2022-08-18T01:07:26;4.35;;;2.22;;
44110;SDS011;29774;52.664;5.074;2022-08-18T01:09:56;2.60;;;2.20;;
44110;SDS011;29774;52.664;5.074;2022-08-18T01:12:27;2.45;;;2.20;;
44110;SDS011;29774;52.664;5.074;2022-08-18T01:14:53;2.38;;;2.05;;
44110;SDS011;29774;52.664;5.074;2022-08-18T01:17:20;2.33;;;2.08;;
44110;SDS011;29774;52.664;5.074;2022-08-18T01:20:05;2.17;;;1.88;;
44110;SDS011;29774;52.664;5.074;2022-08-18T01:25:21;2.53;;;2.15;;
44110;SDS011;29774;52.664;5.074;2022-08-18T01:28:06;2.00;;;1.80;;
44110;SDS011;29774;52.664;5.074;2022-08-18T01:30:42;2.30;;;2.10;;
44110;SDS011;29774;52.664;5.074;2022-08-18T01:33:10;3.40;;;2.05;;
44110;SDS011;29774;52.664;5.074;2022-08-18T01:35:36;2.55;;;2.28;;
44110;SDS011;29774;52.664;5.074;2022-08-18T01:38:04;2.60;;;1.98;;
44110;SDS011;29774;52.664;5.074;2022-08-18T01:40:30;2.10;;;1.90;;
44110;SDS011;29774;52.664;5.074;2022-08-18T01:42:56;4.03;;;2.45;;
44110;SDS011;29774;52.664;5.074;2022-08-18T01:45:22;4.57;;;2.55;;
44110;SDS011;29774;52.664;5.074;2022-08-18T01:47:47;2.40;;;2.10;;
44110;SDS011;29774;52.664;5.074;2022-08-18T01:50:14;2.58;;;1.90;;
44110;SDS011;29774;52.664;5.074;2022-08-18T01:52:41;1.95;;;1.77;;
44110;SDS011;29774;52.664;5.074;2022-08-18T01:55:07;2.35;;;2.05;;
44110;SDS011;29774;52.664;5.074;2022-08-18T01:57:38;2.35;;;2.03;;
44110;SDS011;29774;52.664;5.074;2022-08-18T02:00:07;2.30;;;2.10;;
44110;SDS011;29774;52.664;5.074;2022-08-18T02:02:34;2.33;;;2.03;;
44110;SDS011;29774;52.664;5.074;2022-08-18T02:05:01;2.15;;;2.00;;
44110;SDS011;29774;52.664;5.074;2022-08-18T02:07:32;2.00;;;1.70;;
44110;SDS011;29774;52.664;5.074;2022-08-18T02:09:58;4.05;;;2.08;;
44110;SDS011;29774;52.664;5.074;2022-08-18T02:12:24;1.90;;;1.77;;
44110;SDS011;29774;52.664;5.074;2022-08-18T02:14:49;2.80;;;1.80;;
44110;SDS011;29774;52.664;5.074;2022-08-18T02:17:17;2.85;;;1.88;;
44110;SDS011;29774;52.664;5.074;2022-08-18T02:19:44;1.95;;;1.77;;
44110;SDS011;29774;52.664;5.074;2022-08-18T02:22:12;2.88;;;2.00;;
44110;SDS011;29774;52.664;5.074;2022-08-18T02:24:41;2.75;;;2.28;;
44110;SDS011;29774;52.664;5.074;2022-08-18T02:27:07;2.55;;;1.83;;
44110;SDS011;29774;52.664;5.074;2022-08-18T02:29:34;2.15;;;1.95;;
44110;SDS011;29774;52.664;5.074;2022-08-18T02:32:00;2.53;;;2.10;;
44110;SDS011;29774;52.664;5.074;2022-08-18T02:34:26;4.95;;;3.08;;
44110;SDS011;29774;52.664;5.074;2022-08-18T02:36:52;2.65;;;1.90;;
44110;SDS011;29774;52.664;5.074;2022-08-18T02:39:18;2.42;;;1.73;;
44110;SDS011;29774;52.664;5.074;2022-08-18T02:41:43;3.78;;;2.22;;
44110;SDS011;29774;52.664;5.074;2022-08-18T02:44:09;2.30;;;1.98;;
44110;SDS011;29774;52.664;5.074;2022-08-18T02:46:35;1.85;;;1.70;;
44110;SDS011;29774;52.664;5.074;2022-08-18T02:49:02;1.75;;;1.65;;
44110;SDS011;29774;52.664;5.074;2022-08-18T02:51:29;2.33;;;1.92;;
44110;SDS011;29774;52.664;5.074;2022-08-18T02:53:55;3.97;;;1.70;;
44110;SDS011;29774;52.664;5.074;2022-08-18T02:56:24;2.17;;;1.90;;
44110;SDS011;29774;52.664;5.074;2022-08-18T02:58:56;1.85;;;1.70;;
44110;SDS011;29774;52.664;5.074;2022-08-18T03:01:25;2.38;;;1.63;;
44110;SDS011;29774;52.664;5.074;2022-08-18T03:03:53;2.05;;;1.80;;
44110;SDS011;29774;52.664;5.074;2022-08-18T03:06:20;3.20;;;1.90;;
44110;SDS011;29774;52.664;5.074;2022-08-18T03:08:47;2.03;;;1.80;;
44110;SDS011;29774;52.664;5.074;2022-08-18T03:11:14;2.20;;;2.00;;
44110;SDS011;29774;52.664;5.074;2022-08-18T03:13:42;3.22;;;1.90;;
44110;SDS011;29774;52.664;5.074;2022-08-18T03:16:08;4.00;;;2.00;;
44110;SDS011;29774;52.664;5.074;2022-08-18T03:18:34;1.95;;;1.85;;
44110;SDS011;29774;52.664;5.074;2022-08-18T03:21:11;2.15;;;1.73;;
44110;SDS011;29774;52.664;5.074;2022-08-18T03:23:39;1.70;;;1.60;;
44110;SDS011;29774;52.664;5.074;2022-08-18T03:26:06;2.33;;;2.05;;
44110;SDS011;29774;52.664;5.074;2022-08-18T03:28:39;1.85;;;1.75;;
44110;SDS011;29774;52.664;5.074;2022-08-18T03:31:08;1.95;;;1.75;;
44110;SDS011;29774;52.664;5.074;2022-08-18T03:33:34;1.92;;;1.70;;
44110;SDS011;29774;52.664;5.074;2022-08-18T03:36:10;2.40;;;1.95;;
44110;SDS011;29774;52.664;5.074;2022-08-18T03:38:38;2.13;;;1.75;;
44110;SDS011;29774;52.664;5.074;2022-08-18T03:41:06;2.67;;;1.90;;
44110;SDS011;29774;52.664;5.074;2022-08-18T03:43:32;3.53;;;1.85;;
44110;SDS011;29774;52.664;5.074;2022-08-18T03:46:01;2.60;;;1.95;;
44110;SDS011;29774;52.664;5.074;2022-08-18T03:48:33;1.80;;;1.55;;
44110;SDS011;29774;52.664;5.074;2022-08-18T03:51:03;2.75;;;1.88;;
44110;SDS011;29774;52.664;5.074;2022-08-18T03:53:31;2.50;;;1.80;;
44110;SDS011;29774;52.664;5.074;2022-08-18T03:55:58;2.17;;;1.98;;
44110;SDS011;29774;52.664;5.074;2022-08-18T03:58:23;2.08;;;1.90;;
44110;SDS011;29774;52.664;5.074;2022-08-18T04:00:49;2.20;;;1.88;;
44110;SDS011;29774;52.664;5.074;2022-08-18T04:03:14;4.40;;;1.95;;
44110;SDS011;29774;52.664;5.074;2022-08-18T04:05:40;2.05;;;1.67;;
44110;SDS011;29774;52.664;5.074;2022-08-18T04:08:05;1.98;;;1.63;;
44110;SDS011;29774;52.664;5.074;2022-08-18T04:10:31;1.90;;;1.63;;
44110;SDS011;29774;52.664;5.074;2022-08-18T04:12:59;2.33;;;1.88;;
44110;SDS011;29774;52.664;5.074;2022-08-18T04:15:25;2.08;;;1.85;;
44110;SDS011;29774;52.664;5.074;2022-08-18T04:17:50;1.73;;;1.63;;
44110;SDS011;29774;52.664;5.074;2022-08-18T04:20:16;2.13;;;1.80;;
44110;SDS011;29774;52.664;5.074;2022-08-18T04:22:41;1.80;;;1.70;;
44110;SDS011;29774;52.664;5.074;2022-08-18T04:25:09;1.83;;;1.63;;
44110;SDS011;29774;52.664;5.074;2022-08-18T04:27:35;1.75;;;1.55;;
44110;SDS011;29774;52.664;5.074;2022-08-18T04:30:03;1.70;;;1.60;;
44110;SDS011;29774;52.664;5.074;2022-08-18T04:32:30;2.03;;;1.55;;
44110;SDS011;29774;52.664;5.074;2022-08-18T04:34:56;2.70;;;2.00;;
44110;SDS011;29774;52.664;5.074;2022-08-18T04:37:22;1.80;;;1.70;;
44110;SDS011;29774;52.664;5.074;2022-08-18T04:39:48;2.17;;;1.77;;
44110;SDS011;29774;52.664;5.074;2022-08-18T04:42:14;2.95;;;2.20;;
44110;SDS011;29774;52.664;5.074;2022-08-18T04:44:40;1.85;;;1.75;;
44110;SDS011;29774;52.664;5.074;2022-08-18T04:47:06;4.10;;;1.83;;
44110;SDS011;29774;52.664;5.074;2022-08-18T04:49:33;1.80;;;1.67;;
44110;SDS011;29774;52.664;5.074;2022-08-18T04:51:59;1.58;;;1.48;;
44110;SDS011;29774;52.664;5.074;2022-08-18T04:54:43;2.17;;;1.80;;
44110;SDS011;29774;52.664;5.074;2022-08-18T04:57:13;2.25;;;1.98;;
44110;SDS011;29774;52.664;5.074;2022-08-18T04:59:42;2.05;;;1.80;;
44110;SDS011;29774;52.664;5.074;2022-08-18T05:02:09;1.60;;;1.50;;
44110;SDS011;29774;52.664;5.074;2022-08-18T05:04:36;1.77;;;1.65;;
44110;SDS011;29774;52.664;5.074;2022-08-18T05:07:05;1.77;;;1.67;;
44110;SDS011;29774;52.664;5.074;2022-08-18T05:09:35;2.17;;;1.88;;
44110;SDS011;29774;52.664;5.074;2022-08-18T05:12:04;1.80;;;1.58;;
44110;SDS011;29774;52.664;5.074;2022-08-18T05:14:31;3.30;;;1.88;;
44110;SDS011;29774;52.664;5.074;2022-08-18T05:16:57;2.45;;;2.25;;
44110;SDS011;29774;52.664;5.074;2022-08-18T05:19:27;2.45;;;2.03;;
44110;SDS011;29774;52.664;5.074;2022-08-18T05:21:55;2.92;;;1.90;;
44110;SDS011;29774;52.664;5.074;2022-08-18T05:24:21;1.90;;;1.80;;
44110;SDS011;29774;52.664;5.074;2022-08-18T05:26:49;2.03;;;1.80;;
44110;SDS011;29774;52.664;5.074;2022-08-18T05:29:16;1.80;;;1.70;;
44110;SDS011;29774;52.664;5.074;2022-08-18T05:31:45;3.20;;;1.88;;
44110;SDS011;29774;52.664;5.074;2022-08-18T05:34:13;2.22;;;1.90;;
44110;SDS011;29774;52.664;5.074;2022-08-18T05:39:18;3.00;;;2.28;;
44110;SDS011;29774;52.664;5.074;2022-08-18T05:42:12;4.60;;;2.00;;
44110;SDS011;29774;52.664;5.074;2022-08-18T05:44:43;2.20;;;2.00;;
44110;SDS011;29774;52.664;5.074;2022-08-18T05:47:13;2.00;;;1.65;;
44110;SDS011;29774;52.664;5.074;2022-08-18T05:49:51;2.42;;;2.00;;
44110;SDS011;29774;52.664;5.074;2022-08-18T05:54:50;3.10;;;2.00;;
44110;SDS011;29774;52.664;5.074;2022-08-18T05:57:38;2.10;;;1.90;;
44110;SDS011;29774;52.664;5.074;2022-08-18T06:00:12;2.58;;;2.20;;
44110;SDS011;29774;52.664;5.074;2022-08-18T06:02:43;2.70;;;2.13;;
44110;SDS011;29774;52.664;5.074;2022-08-18T06:05:20;2.75;;;2.03;;
44110;SDS011;29774;52.664;5.074;2022-08-18T06:07:56;2.40;;;2.00;;
44110;SDS011;29774;52.664;5.074;2022-08-18T06:10:24;2.70;;;2.50;;
44110;SDS011;29774;52.664;5.074;2022-08-18T06:12:55;3.05;;;2.75;;
44110;SDS011;29774;52.664;5.074;2022-08-18T06:18:15;2.20;;;1.98;;
44110;SDS011;29774;52.664;5.074;2022-08-18T06:23:34;2.25;;;2.08;;
44110;SDS011;29774;52.664;5.074;2022-08-18T06:43:34;2.28;;;1.90;;
44110;SDS011;29774;52.664;5.074;2022-08-18T06:46:06;1.85;;;1.70;;
44110;SDS011;29774;52.664;5.074;2022-08-18T06:48:39;1.80;;;1.70;;
44110;SDS011;29774;52.664;5.074;2022-08-18T06:51:23;2.05;;;1.70;;
44110;SDS011;29774;52.664;5.074;2022-08-18T06:56:27;2.60;;;1.70;;
44110;SDS011;29774;52.664;5.074;2022-08-18T07:01:44;1.60;;;1.50;;
44110;SDS011;29774;52.664;5.074;2022-08-18T07:04:35;2.38;;;1.90;;
44110;SDS011;29774;52.664;5.074;2022-08-18T07:09:56;2.25;;;1.70;;
44110;SDS011;29774;52.664;5.074;2022-08-18T07:12:23;1.55;;;1.45;;
44110;SDS011;29774;52.664;5.074;2022-08-18T07:14:59;2.95;;;1.67;;
44110;SDS011;29774;52.664;5.074;2022-08-18T07:17:27;1.45;;;1.35;;
44110;SDS011;29774;52.664;5.074;2022-08-18T07:19:56;1.83;;;1.73;;
44110;SDS011;29774;52.664;5.074;2022-08-18T07:22:28;1.83;;;1.30;;
44110;SDS011;29774;52.664;5.074;2022-08-18T07:24:55;2.13;;;1.60;;
44110;SDS011;29774;52.664;5.074;2022-08-18T07:27:41;2.10;;;1.73;;
44110;SDS011;29774;52.664;5.074;2022-08-18T07:30:24;2.05;;;1.55;;
44110;SDS011;29774;52.664;5.074;2022-08-18T07:33:01;2.75;;;1.83;;
44110;SDS011;29774;52.664;5.074;2022-08-18T07:35:37;3.00;;;2.00;;
44110;SDS011;29774;52.664;5.074;2022-08-18T07:38:16;2.40;;;1.77;;
44110;SDS011;29774;52.664;5.074;2022-08-18T07:49:30;2.50;;;2.08;;
44110;SDS011;29774;52.664;5.074;2022-08-18T07:52:11;2.50;;;1.83;;
44110;SDS011;29774;52.664;5.074;2022-08-18T07:54:48;1.95;;;1.60;;
44110;SDS011;29774;52.664;5.074;2022-08-18T08:00:34;1.95;;;1.73;;
44110;SDS011;29774;52.664;5.074;2022-08-18T08:06:51;1.55;;;1.40;;
44110;SDS011;29774;52.664;5.074;2022-08-18T08:09:16;1.88;;;1.50;;
44110;SDS011;29774;52.664;5.074;2022-08-18T08:11:57;1.88;;;1.75;;
44110;SDS011;29774;52.664;5.074;2022-08-18T08:19:54;2.30;;;1.75;;
44110;SDS011;29774;52.664;5.074;2022-08-18T08:33:32;3.30;;;1.50;;
44110;SDS011;29774;52.664;5.074;2022-08-18T08:39:22;1.50;;;1.10;;
44110;SDS011;29774;52.664;5.074;2022-08-18T08:41:56;2.15;;;1.00;;
44110;SDS011;29774;52.664;5.074;2022-08-18T08:47:02;1.40;;;1.13;;
44110;SDS011;29774;52.664;5.074;2022-08-18T08:49:36;1.70;;;1.52;;
44110;SDS011;29774;52.664;5.074;2022-08-18T08:52:20;1.50;;;1.33;;
44110;SDS011;29774;52.664;5.074;2022-08-18T08:55:05;1.83;;;1.10;;
44110;SDS011;29774;52.664;5.074;2022-08-18T08:57:36;2.67;;;1.38;;
44110;SDS011;29774;52.664;5.074;2022-08-18T09:00:07;1.67;;;1.25;;
44110;SDS011;29774;52.664;5.074;2022-08-18T09:02:40;2.15;;;1.02;;
44110;SDS011;29774;52.664;5.074;2022-08-18T09:05:14;2.28;;;1.58;;
44110;SDS011;29774;52.664;5.074;2022-08-18T09:07:51;1.92;;;1.55;;
44110;SDS011;29774;52.664;5.074;2022-08-18T09:24:37;2.47;;;2.00;;
44110;SDS011;29774;52.664;5.074;2022-08-18T09:29:57;3.33;;;2.22;;
44110;SDS011;29774;52.664;5.074;2022-08-18T09:38:05;2.42;;;1.15;;
44110;SDS011;29774;52.664;5.074;2022-08-18T09:40:55;1.08;;;0.95;;
44110;SDS011;29774;52.664;5.074;2022-08-18T09:43:57;1.27;;;1.05;;
44110;SDS011;29774;52.664;5.074;2022-08-18T09:46:53;3.45;;;1.35;;
44110;SDS011;29774;52.664;5.074;2022-08-18T09:54:53;1.10;;;0.90;;
44110;SDS011;29774;52.664;5.074;2022-08-18T09:57:24;1.95;;;1.08;;
44110;SDS011;29774;52.664;5.074;2022-08-18T09:59:52;0.80;;;0.80;;
44110;SDS011;29774;52.664;5.074;2022-08-18T10:07:48;2.92;;;1.02;;
44110;SDS011;29774;52.664;5.074;2022-08-18T10:19:11;2.40;;;1.55;;
44110;SDS011;29774;52.664;5.074;2022-08-18T10:24:27;1.63;;;0.90;;
44110;SDS011;29774;52.664;5.074;2022-08-18T10:37:13;3.83;;;1.17;;
44110;SDS011;29774;52.664;5.074;2022-08-18T10:39:52;2.55;;;1.00;;
44110;SDS011;29774;52.664;5.074;2022-08-18T10:42:40;1.52;;;1.30;;
44110;SDS011;29774;52.664;5.074;2022-08-18T10:45:33;2.38;;;1.00;;
44110;SDS011;29774;52.664;5.074;2022-08-18T10:50:29;3.92;;;1.50;;
44110;SDS011;29774;52.664;5.074;2022-08-18T10:56:34;2.55;;;1.25;;
44110;SDS011;29774;52.664;5.074;2022-08-18T11:01:54;1.42;;;1.00;;
44110;SDS011;29774;52.664;5.074;2022-08-18T11:04:37;1.67;;;1.00;;
44110;SDS011;29774;52.664;5.074;2022-08-18T11:07:12;1.60;;;1.13;;
44110;SDS011;29774;52.664;5.074;2022-08-18T11:09:44;3.47;;;1.40;;
44110;SDS011;29774;52.664;5.074;2022-08-18T11:12:13;2.13;;;0.90;;
44110;SDS011;29774;52.664;5.074;2022-08-18T11:15:05;2.92;;;1.33;;
44110;SDS011;29774;52.664;5.074;2022-08-18T11:18:12;4.00;;;1.70;;
44110;SDS011;29774;52.664;5.074;2022-08-18T11:20:52;2.17;;;1.60;;
44110;SDS011;29774;52.664;5.074;2022-08-18T11:23:18;2.70;;;1.42;;
44110;SDS011;29774;52.664;5.074;2022-08-18T11:25:44;3.05;;;1.63;;
44110;SDS011;29774;52.664;5.074;2022-08-18T11:28:14;1.40;;;0.98;;
44110;SDS011;29774;52.664;5.074;2022-08-18T11:30:46;2.55;;;1.33;;
44110;SDS011;29774;52.664;5.074;2022-08-18T11:33:15;2.60;;;1.40;;
44110;SDS011;29774;52.664;5.074;2022-08-18T11:35:49;3.53;;;1.38;;
44110;SDS011;29774;52.664;5.074;2022-08-18T11:38:18;1.25;;;0.95;;
44110;SDS011;29774;52.664;5.074;2022-08-18T11:40:44;1.85;;;1.20;;
44110;SDS011;29774;52.664;5.074;2022-08-18T11:43:15;3.97;;;1.17;;
44110;SDS011;29774;52.664;5.074;2022-08-18T11:48:19;2.35;;;1.60;;
44110;SDS011;29774;52.664;5.074;2022-08-18T11:53:23;3.00;;;1.40;;
44110;SDS011;29774;52.664;5.074;2022-08-18T11:56:10;1.55;;;1.45;;
44110;SDS011;29774;52.664;5.074;2022-08-18T12:03:56;2.38;;;1.50;;
44110;SDS011;29774;52.664;5.074;2022-08-18T12:06:24;1.60;;;1.23;;
44110;SDS011;29774;52.664;5.074;2022-08-18T12:08:56;1.60;;;1.10;;
44110;SDS011;29774;52.664;5.074;2022-08-18T12:11:30;4.40;;;1.42;;
44110;SDS011;29774;52.664;5.074;2022-08-18T12:13:59;1.77;;;1.33;;
44110;SDS011;29774;52.664;5.074;2022-08-18T12:16:41;1.73;;;1.10;;
44110;SDS011;29774;52.664;5.074;2022-08-18T12:19:08;2.60;;;1.60;;
44110;SDS011;29774;52.664;5.074;2022-08-18T12:21:39;4.13;;;1.77;;
44110;SDS011;29774;52.664;5.074;2022-08-18T12:24:27;1.27;;;1.08;;
44110;SDS011;29774;52.664;5.074;2022-08-18T12:26:57;1.92;;;1.33;;
44110;SDS011;29774;52.664;5.074;2022-08-18T12:29:24;2.50;;;1.50;;
44110;SDS011;29774;52.664;5.074;2022-08-18T12:31:52;1.58;;;1.20;;
44110;SDS011;29774;52.664;5.074;2022-08-18T12:34:20;2.22;;;1.25;;
44110;SDS011;29774;52.664;5.074;2022-08-18T12:36:52;3.30;;;1.23;;
44110;SDS011;29774;52.664;5.074;2022-08-18T12:39:20;1.65;;;1.15;;
44110;SDS011;29774;52.664;5.074;2022-08-18T12:41:46;1.30;;;1.13;;
44110;SDS011;29774;52.664;5.074;2022-08-18T12:44:12;2.38;;;1.42;;
44110;SDS011;29774;52.664;5.074;2022-08-18T12:46:37;2.83;;;1.40;;
44110;SDS011;29774;52.664;5.074;2022-08-18T12:49:03;3.17;;;1.55;;
44110;SDS011;29774;52.664;5.074;2022-08-18T12:51:30;1.58;;;1.20;;
44110;SDS011;29774;52.664;5.074;2022-08-18T12:53:55;3.53;;;1.50;;
44110;SDS011;29774;52.664;5.074;2022-08-18T12:56:23;2.95;;;1.30;;
44110;SDS011;29774;52.664;5.074;2022-08-18T12:58:50;5.63;;;1.77;;
44110;SDS011;29774;52.664;5.074;2022-08-18T13:01:17;2.10;;;1.45;;
44110;SDS011;29774;52.664;5.074;2022-08-18T13:03:44;1.80;;;1.40;;
44110;SDS011;29774;52.664;5.074;2022-08-18T13:06:13;1.17;;;1.08;;
44110;SDS011;29774;52.664;5.074;2022-08-18T13:08:39;1.20;;;1.10;;
44110;SDS011;29774;52.664;5.074;2022-08-18T13:11:05;3.50;;;1.85;;
44110;SDS011;29774;52.664;5.074;2022-08-18T13:13:35;1.67;;;1.10;;
44110;SDS011;29774;52.664;5.074;2022-08-18T13:16:03;2.38;;;1.73;;
44110;SDS011;29774;52.664;5.074;2022-08-18T13:18:29;1.70;;;1.45;;
44110;SDS011;29774;52.664;5.074;2022-08-18T13:20:56;1.77;;;1.33;;
44110;SDS011;29774;52.664;5.074;2022-08-18T13:23:22;1.77;;;1.15;;
44110;SDS011;29774;52.664;5.074;2022-08-18T13:25:48;1.55;;;1.40;;
44110;SDS011;29774;52.664;5.074;2022-08-18T13:28:13;1.30;;;1.20;;
44110;SDS011;29774;52.664;5.074;2022-08-18T13:30:39;1.83;;;1.38;;
44110;SDS011;29774;52.664;5.074;2022-08-18T13:33:05;3.08;;;1.95;;
44110;SDS011;29774;52.664;5.074;2022-08-18T13:35:31;1.90;;;1.55;;
44110;SDS011;29774;52.664;5.074;2022-08-18T13:37:58;3.40;;;1.80;;
44110;SDS011;29774;52.664;5.074;2022-08-18T13:40:23;1.70;;;1.42;;
44110;SDS011;29774;52.664;5.074;2022-08-18T13:42:49;1.55;;;1.10;;
44110;SDS011;29774;52.664;5.074;2022-08-18T13:45:18;2.25;;;1.17;;
44110;SDS011;29774;52.664;5.074;2022-08-18T13:47:46;3.20;;;1.40;;
44110;SDS011;29774;52.664;5.074;2022-08-18T13:50:13;2.28;;;1.65;;
44110;SDS011;29774;52.664;5.074;2022-08-18T13:52:40;3.05;;;1.77;;
44110;SDS011;29774;52.664;5.074;2022-08-18T13:55:13;2.20;;;1.38;;
44110;SDS011;29774;52.664;5.074;2022-08-18T13:57:41;1.88;;;1.45;;
44110;SDS011;29774;52.664;5.074;2022-08-18T14:00:15;2.28;;;1.20;;
44110;SDS011;29774;52.664;5.074;2022-08-18T14:02:43;2.33;;;1.23;;
44110;SDS011;29774;52.664;5.074;2022-08-18T14:05:12;2.67;;;1.35;;
44110;SDS011;29774;52.664;5.074;2022-08-18T14:07:39;2.20;;;1.40;;
44110;SDS011;29774;52.664;5.074;2022-08-18T14:10:06;3.03;;;1.35;;
44110;SDS011;29774;52.664;5.074;2022-08-18T14:12:33;2.85;;;1.70;;
44110;SDS011;29774;52.664;5.074;2022-08-18T14:15:01;2.10;;;1.58;;
44110;SDS011;29774;52.664;5.074;2022-08-18T14:17:30;3.10;;;1.63;;
44110;SDS011;29774;52.664;5.074;2022-08-18T14:19:56;1.45;;;1.30;;
44110;SDS011;29774;52.664;5.074;2022-08-18T14:22:40;2.25;;;1.45;;
44110;SDS011;29774;52.664;5.074;2022-08-18T14:25:24;3.00;;;1.58;;
44110;SDS011;29774;52.664;5.074;2022-08-18T14:28:09;2.40;;;1.40;;
44110;SDS011;29774;52.664;5.074;2022-08-18T14:30:35;2.45;;;1.27;;
44110;SDS011;29774;52.664;5.074;2022-08-18T14:33:03;1.50;;;1.30;;
44110;SDS011;29774;52.664;5.074;2022-08-18T14:35:32;4.60;;;1.42;;
44110;SDS011;29774;52.664;5.074;2022-08-18T14:37:58;1.70;;;1.50;;
44110;SDS011;29774;52.664;5.074;2022-08-18T14:40:25;1.73;;;1.50;;
44110;SDS011;29774;52.664;5.074;2022-08-18T14:42:51;1.27;;;1.17;;
44110;SDS011;29774;52.664;5.074;2022-08-18T14:45:17;1.98;;;1.10;;
44110;SDS011;29774;52.664;5.074;2022-08-18T14:47:43;2.25;;;1.40;;
44110;SDS011;29774;52.664;5.074;2022-08-18T14:50:09;1.95;;;1.23;;
44110;SDS011;29774;52.664;5.074;2022-08-18T14:52:40;2.35;;;1.27;;
44110;SDS011;29774;52.664;5.074;2022-08-18T14:55:07;1.80;;;1.10;;
44110;SDS011;29774;52.664;5.074;2022-08-18T14:57:35;2.50;;;1.00;;
44110;SDS011;29774;52.664;5.074;2022-08-18T15:00:08;2.35;;;1.40;;
44110;SDS011;29774;52.664;5.074;2022-08-18T15:02:37;2.47;;;1.20;;
44110;SDS011;29774;52.664;5.074;2022-08-18T15:05:04;2.08;;;1.30;;
44110;SDS011;29774;52.664;5.074;2022-08-18T15:07:30;1.73;;;1.20;;
44110;SDS011;29774;52.664;5.074;2022-08-18T15:09:56;1.13;;;1.02;;
44110;SDS011;29774;52.664;5.074;2022-08-18T15:12:22;2.65;;;1.45;;
44110;SDS011;29774;52.664;5.074;2022-08-18T15:14:49;2.05;;;1.33;;
44110;SDS011;29774;52.664;5.074;2022-08-18T15:17:15;1.77;;;1.13;;
44110;SDS011;29774;52.664;5.074;2022-08-18T15:19:41;2.83;;;1.13;;
44110;SDS011;29774;52.664;5.074;2022-08-18T15:22:08;2.80;;;1.10;;
44110;SDS011;29774;52.664;5.074;2022-08-18T15:24:52;1.83;;;1.20;;
44110;SDS011;29774;52.664;5.074;2022-08-18T15:27:50;1.90;;;1.10;;
44110;SDS011;29774;52.664;5.074;2022-08-18T15:30:17;1.83;;;1.25;;
44110;SDS011;29774;52.664;5.074;2022-08-18T15:32:43;1.88;;;1.45;;
44110;SDS011;29774;52.664;5.074;2022-08-18T15:35:10;1.58;;;1.35;;
44110;SDS011;29774;52.664;5.074;2022-08-18T15:37:40;1.95;;;1.27;;
44110;SDS011;29774;52.664;5.074;2022-08-18T15:40:08;2.15;;;1.00;;
44110;SDS011;29774;52.664;5.074;2022-08-18T15:42:39;2.45;;;1.17;;
44110;SDS011;29774;52.664;5.074;2022-08-18T15:45:08;1.63;;;1.05;;
44110;SDS011;29774;52.664;5.074;2022-08-18T15:47:34;2.00;;;1.10;;
44110;SDS011;29774;52.664;5.074;2022-08-18T15:50:00;1.23;;;1.05;;
44110;SDS011;29774;52.664;5.074;2022-08-18T15:52:25;1.42;;;1.33;;
44110;SDS011;29774;52.664;5.074;2022-08-18T15:54:51;0.95;;;0.95;;
44110;SDS011;29774;52.664;5.074;2022-08-18T15:57:18;1.60;;;1.30;;
44110;SDS011;29774;52.664;5.074;2022-08-18T15:59:43;1.88;;;1.25;;
44110;SDS011;29774;52.664;5.074;2022-08-18T16:02:10;1.75;;;1.10;;
44110;SDS011;29774;52.664;5.074;2022-08-18T16:04:37;2.08;;;1.45;;
44110;SDS011;29774;52.664;5.074;2022-08-18T16:07:04;1.88;;;1.10;;
44110;SDS011;29774;52.664;5.074;2022-08-18T16:09:30;1.45;;;1.35;;
44110;SDS011;29774;52.664;5.074;2022-08-18T16:11:56;1.92;;;1.60;;
44110;SDS011;29774;52.664;5.074;2022-08-18T16:14:21;2.20;;;1.40;;
44110;SDS011;29774;52.664;5.074;2022-08-18T16:16:47;2.60;;;1.20;;
44110;SDS011;29774;52.664;5.074;2022-08-18T16:19:12;5.22;;;2.03;;
44110;SDS011;29774;52.664;5.074;2022-08-18T16:21:38;1.40;;;1.00;;
44110;SDS011;29774;52.664;5.074;2022-08-18T16:24:04;1.23;;;1.10;;
44110;SDS011;29774;52.664;5.074;2022-08-18T16:26:30;2.03;;;1.20;;
44110;SDS011;29774;52.664;5.074;2022-08-18T16:28:55;1.33;;;1.15;;
44110;SDS011;29774;52.664;5.074;2022-08-18T16:31:22;2.15;;;1.10;;
44110;SDS011;29774;52.664;5.074;2022-08-18T16:33:49;1.67;;;1.08;;
44110;SDS011;29774;52.664;5.074;2022-08-18T16:36:16;1.77;;;1.50;;
44110;SDS011;29774;52.664;5.074;2022-08-18T16:38:42;1.33;;;1.23;;
44110;SDS011;29774;52.664;5.074;2022-08-18T16:41:09;1.58;;;1.45;;
44110;SDS011;29774;52.664;5.074;2022-08-18T16:43:39;1.48;;;1.38;;
44110;SDS011;29774;52.664;5.074;2022-08-18T16:46:08;1.38;;;1.20;;
44110;SDS011;29774;52.664;5.074;2022-08-18T16:48:36;2.08;;;1.27;;
44110;SDS011;29774;52.664;5.074;2022-08-18T16:51:02;1.70;;;1.60;;
44110;SDS011;29774;52.664;5.074;2022-08-18T16:53:28;1.20;;;1.10;;
44110;SDS011;29774;52.664;5.074;2022-08-18T16:55:54;2.00;;;1.42;;
44110;SDS011;29774;52.664;5.074;2022-08-18T16:58:19;1.48;;;1.23;;
44110;SDS011;29774;52.664;5.074;2022-08-18T17:01:04;2.47;;;1.30;;
44110;SDS011;29774;52.664;5.074;2022-08-18T17:03:48;2.75;;;1.20;;
44110;SDS011;29774;52.664;5.074;2022-08-18T17:06:32;1.67;;;1.23;;
44110;SDS011;29774;52.664;5.074;2022-08-18T17:08:58;1.30;;;1.20;;
44110;SDS011;29774;52.664;5.074;2022-08-18T17:11:25;2.03;;;1.20;;
44110;SDS011;29774;52.664;5.074;2022-08-18T17:13:52;2.33;;;1.13;;
44110;SDS011;29774;52.664;5.074;2022-08-18T17:16:20;1.50;;;1.40;;
44110;SDS011;29774;52.664;5.074;2022-08-18T17:18:48;2.28;;;1.10;;
44110;SDS011;29774;52.664;5.074;2022-08-18T17:21:15;2.30;;;1.50;;
44110;SDS011;29774;52.664;5.074;2022-08-18T17:23:43;1.83;;;1.40;;
44110;SDS011;29774;52.664;5.074;2022-08-18T17:26:31;1.52;;;1.20;;
44110;SDS011;29774;52.664;5.074;2022-08-18T17:31:46;2.38;;;1.20;;
44110;SDS011;29774;52.664;5.074;2022-08-18T17:34:18;1.50;;;1.10;;
44110;SDS011;29774;52.664;5.074;2022-08-18T17:36:51;1.25;;;1.00;;
44110;SDS011;29774;52.664;5.074;2022-08-18T17:39:22;1.35;;;1.17;;
44110;SDS011;29774;52.664;5.074;2022-08-18T17:41:51;2.95;;;1.30;;
44110;SDS011;29774;52.664;5.074;2022-08-18T17:44:36;1.75;;;1.13;;